createdAt,value
2023-05-18T00:00:19.390Z,0.00
2023-05-18T00:01:19.386Z,0.00
2023-05-18T00:02:19.385Z,0.00
2023-05-18T00:03:19.435Z,0.00
2023-05-18T00:04:19.407Z,0.00
2023-05-18T00:05:51.219Z,0.00
2023-05-18T00:06:19.316Z,0.00
2023-05-18T00:07:19.309Z,0.00
2023-05-18T00:08:19.333Z,0.00
2023-05-18T00:09:19.277Z,0.00
2023-05-18T00:10:19.329Z,0.00
2023-05-18T00:11:19.337Z,0.00
2023-05-18T00:12:19.236Z,0.00
2023-05-18T00:13:19.241Z,0.00
2023-05-18T00:14:19.217Z,0.00
2023-05-18T00:15:19.232Z,0.00
2023-05-18T00:16:19.274Z,0.00
2023-05-18T00:17:19.195Z,0.00
2023-05-18T00:18:19.185Z,0.00
2023-05-18T00:19:19.330Z,0.00
2023-05-18T00:20:19.162Z,0.00
2023-05-18T00:21:19.209Z,0.00
2023-05-18T00:22:19.284Z,0.00
2023-05-18T00:23:19.130Z,0.00
2023-05-18T00:24:19.143Z,0.00
2023-05-18T00:25:19.225Z,0.00
2023-05-18T00:26:19.123Z,0.00
2023-05-18T00:27:19.091Z,0.00
2023-05-18T00:28:19.083Z,0.00
2023-05-18T00:29:19.078Z,0.00
2023-05-18T00:30:19.122Z,0.00
2023-05-18T00:31:19.076Z,0.00
2023-05-18T00:32:19.045Z,0.00
2023-05-18T00:33:19.030Z,0.00
2023-05-18T00:34:19.041Z,0.00
2023-05-18T00:35:19.002Z,0.00
2023-05-18T00:36:19.000Z,0.00
2023-05-18T00:37:19.001Z,0.00
2023-05-18T00:38:18.993Z,0.00
2023-05-18T00:39:18.992Z,0.00
2023-05-18T00:40:18.992Z,0.00
2023-05-18T00:41:18.949Z,0.00
2023-05-18T00:42:18.950Z,0.00
2023-05-18T00:43:18.936Z,0.00
2023-05-18T00:44:18.943Z,0.00
2023-05-18T00:45:18.916Z,0.00
2023-05-18T00:46:18.910Z,0.00
2023-05-18T00:47:18.935Z,0.00
2023-05-18T00:48:18.937Z,0.00
2023-05-18T00:49:18.964Z,0.00
2023-05-18T00:50:18.871Z,0.00
2023-05-18T00:51:18.917Z,0.00
2023-05-18T00:52:18.852Z,0.00
2023-05-18T00:53:18.830Z,0.00
2023-05-18T00:54:18.845Z,0.00
2023-05-18T00:55:18.819Z,0.00
2023-05-18T00:56:18.817Z,0.00
2023-05-18T00:57:18.809Z,0.00
2023-05-18T00:58:18.817Z,0.00
2023-05-18T00:59:18.812Z,0.00
2023-05-18T01:00:18.799Z,0.00
2023-05-18T01:01:18.803Z,0.00
2023-05-18T01:02:18.772Z,0.00
2023-05-18T01:03:18.821Z,0.00
2023-05-18T01:04:18.735Z,0.00
2023-05-18T01:05:18.721Z,0.00
2023-05-18T01:06:18.744Z,0.00
2023-05-18T01:07:18.710Z,0.00
2023-05-18T01:08:18.709Z,0.00
2023-05-18T01:09:18.688Z,0.00
2023-05-18T01:10:18.689Z,0.00
2023-05-18T01:11:18.727Z,0.00
2023-05-18T01:12:18.672Z,0.00
2023-05-18T01:13:18.669Z,0.00
2023-05-18T01:14:18.631Z,0.00
2023-05-18T01:15:18.658Z,0.00
2023-05-18T01:16:18.619Z,0.00
2023-05-18T01:17:18.799Z,0.00
2023-05-18T01:18:18.607Z,0.00
2023-05-18T01:19:18.659Z,0.00
2023-05-18T01:20:18.586Z,0.00
2023-05-18T01:21:18.567Z,0.00
2023-05-18T01:22:18.585Z,0.00
2023-05-18T01:23:18.554Z,0.00
2023-05-18T01:24:18.545Z,0.00
2023-05-18T01:25:18.542Z,0.00
2023-05-18T01:26:18.523Z,0.00
2023-05-18T01:27:18.530Z,0.00
2023-05-18T01:28:18.507Z,0.00
2023-05-18T01:29:18.493Z,0.00
2023-05-18T01:30:18.520Z,0.00
2023-05-18T01:31:18.683Z,0.00
2023-05-18T01:32:18.456Z,0.00
2023-05-18T01:33:18.448Z,0.00
2023-05-18T01:34:18.432Z,0.00
2023-05-18T01:35:18.452Z,0.00
2023-05-18T01:36:18.457Z,0.00
2023-05-18T01:37:18.434Z,0.00
2023-05-18T01:38:18.414Z,0.00
2023-05-18T01:39:18.393Z,0.00
2023-05-18T01:40:18.406Z,0.00
2023-05-18T01:41:18.395Z,0.00
2023-05-18T01:42:18.361Z,0.00
2023-05-18T01:43:18.350Z,0.00
2023-05-18T01:44:18.356Z,0.00
2023-05-18T01:45:18.364Z,0.00
2023-05-18T01:46:18.371Z,0.00
2023-05-18T01:47:18.328Z,0.00
2023-05-18T01:48:18.304Z,0.00
2023-05-18T01:49:18.291Z,0.00
2023-05-18T01:50:18.318Z,0.00
2023-05-18T01:51:18.294Z,0.00
2023-05-18T01:52:18.293Z,0.00
2023-05-18T01:53:18.272Z,0.00
2023-05-18T01:54:19.284Z,0.00
2023-05-18T01:55:18.261Z,0.00
2023-05-18T01:56:18.237Z,0.00
2023-05-18T01:57:18.224Z,0.00
2023-05-18T01:58:18.226Z,0.00
2023-05-18T01:59:18.223Z,0.00
2023-05-18T02:00:18.201Z,0.00
2023-05-18T02:01:18.204Z,0.00
2023-05-18T02:02:18.232Z,0.00
2023-05-18T02:03:18.252Z,0.00
2023-05-18T02:04:18.223Z,0.00
2023-05-18T02:05:18.167Z,0.00
2023-05-18T02:06:18.146Z,0.00
2023-05-18T02:07:18.131Z,0.00
2023-05-18T02:08:18.153Z,0.00
2023-05-18T02:09:18.137Z,0.00
2023-05-18T02:10:18.105Z,0.00
2023-05-18T02:11:18.095Z,0.00
2023-05-18T02:12:18.087Z,0.00
2023-05-18T02:13:18.088Z,0.00
2023-05-18T02:14:18.061Z,0.00
2023-05-18T02:15:18.051Z,0.00
2023-05-18T02:16:18.057Z,0.00
2023-05-18T02:17:18.031Z,0.00
2023-05-18T02:18:18.039Z,0.00
2023-05-18T02:19:18.081Z,0.00
2023-05-18T02:20:18.017Z,0.00
2023-05-18T02:21:18.013Z,0.00
2023-05-18T02:22:18.002Z,0.00
2023-05-18T02:23:17.988Z,0.00
2023-05-18T02:24:17.955Z,0.00
2023-05-18T02:25:17.955Z,0.00
2023-05-18T02:26:17.942Z,0.00
2023-05-18T02:27:17.964Z,0.00
2023-05-18T02:28:17.921Z,0.00
2023-05-18T02:29:17.919Z,0.00
2023-05-18T02:30:17.917Z,0.00
2023-05-18T02:31:17.957Z,0.00
2023-05-18T02:32:17.941Z,0.00
2023-05-18T02:33:17.890Z,0.00
2023-05-18T02:34:17.892Z,0.00
2023-05-18T02:35:17.870Z,0.00
2023-05-18T02:36:17.851Z,0.00
2023-05-18T02:37:17.865Z,0.00
2023-05-18T02:38:17.835Z,0.00
2023-05-18T02:39:17.824Z,0.00
2023-05-18T02:40:17.838Z,0.00
2023-05-18T02:41:17.840Z,0.00
2023-05-18T02:42:17.813Z,0.00
2023-05-18T02:43:17.786Z,4.00
2023-05-18T02:44:17.784Z,4.00
2023-05-18T02:45:17.777Z,4.00
2023-05-18T02:46:17.870Z,0.00
2023-05-18T02:47:17.760Z,0.00
2023-05-18T02:48:17.747Z,4.00
2023-05-18T02:49:17.749Z,4.00
2023-05-18T02:50:17.732Z,4.00
2023-05-18T02:51:17.740Z,4.00
2023-05-18T02:52:18.721Z,4.00
2023-05-18T02:53:17.709Z,8.00
2023-05-18T02:54:17.709Z,4.00
2023-05-18T02:55:17.713Z,8.00
2023-05-18T02:56:17.695Z,8.00
2023-05-18T02:57:17.672Z,8.00
2023-05-18T02:58:17.669Z,12.00
2023-05-18T02:59:17.658Z,12.00
2023-05-18T03:00:17.672Z,16.00
2023-05-18T03:01:17.697Z,16.00
2023-05-18T03:02:17.655Z,16.00
2023-05-18T03:03:17.765Z,20.00
2023-05-18T03:04:17.659Z,24.00
2023-05-18T03:05:17.599Z,28.00
2023-05-18T03:06:17.610Z,32.00
2023-05-18T03:07:17.580Z,36.00
2023-05-18T03:08:17.578Z,40.00
2023-05-18T03:09:17.590Z,44.00
2023-05-18T03:10:17.570Z,48.00
2023-05-18T03:11:17.554Z,56.00
2023-05-18T03:12:17.576Z,60.00
2023-05-18T03:13:17.533Z,68.00
2023-05-18T03:14:17.538Z,80.00
2023-05-18T03:15:17.531Z,88.00
2023-05-18T03:16:17.543Z,96.00
2023-05-18T03:17:17.501Z,108.00
2023-05-18T03:18:17.491Z,120.00
2023-05-18T03:19:17.578Z,128.00
2023-05-18T03:20:17.478Z,144.00
2023-05-18T03:21:17.480Z,160.00
2023-05-18T03:22:17.462Z,176.00
2023-05-18T03:23:17.464Z,192.00
2023-05-18T03:24:17.465Z,212.00
2023-05-18T03:25:17.450Z,228.00
2023-05-18T03:26:17.422Z,248.00
2023-05-18T03:27:17.415Z,272.00
2023-05-18T03:28:17.427Z,288.00
2023-05-18T03:29:17.410Z,312.00
2023-05-18T03:30:17.391Z,336.00
2023-05-18T03:31:17.399Z,364.00
2023-05-18T03:32:17.375Z,388.00
2023-05-18T03:33:17.482Z,416.00
2023-05-18T03:34:17.351Z,444.00
2023-05-18T03:35:17.359Z,472.00
2023-05-18T03:36:17.338Z,504.00
2023-05-18T03:37:17.355Z,536.00
2023-05-18T03:38:17.343Z,564.00
2023-05-18T03:39:17.312Z,596.00
2023-05-18T03:40:17.311Z,632.00
2023-05-18T03:41:17.293Z,664.00
2023-05-18T03:42:17.390Z,696.00
2023-05-18T03:43:17.282Z,732.00
2023-05-18T03:44:17.264Z,768.00
2023-05-18T03:45:17.259Z,804.00
2023-05-18T03:46:17.268Z,844.00
2023-05-18T03:47:17.257Z,884.00
2023-05-18T03:48:17.229Z,924.00
2023-05-18T03:49:17.231Z,964.00
2023-05-18T03:50:17.209Z,1008.00
2023-05-18T03:51:17.218Z,1048.00
2023-05-18T03:52:17.201Z,1092.00
2023-05-18T03:53:17.176Z,1136.00
2023-05-18T03:54:17.181Z,1180.00
2023-05-18T03:55:17.179Z,1232.00
2023-05-18T03:56:17.148Z,1288.00
2023-05-18T03:57:17.146Z,1344.00
2023-05-18T03:58:17.186Z,1392.00
2023-05-18T03:59:17.160Z,1440.00
2023-05-18T04:00:17.108Z,1488.00
2023-05-18T04:01:17.158Z,1528.00
2023-05-18T04:02:17.122Z,1568.00
2023-05-18T04:03:17.255Z,1616.00
2023-05-18T04:04:17.116Z,1660.00
2023-05-18T04:05:17.096Z,1700.00
2023-05-18T04:06:17.078Z,1736.00
2023-05-18T04:07:17.058Z,1764.00
2023-05-18T04:08:17.039Z,1792.00
2023-05-18T04:09:17.041Z,1820.00
2023-05-18T04:10:17.042Z,1848.00
2023-05-18T04:11:17.009Z,1880.00
2023-05-18T04:12:17.010Z,1912.00
2023-05-18T04:13:16.986Z,1952.00
2023-05-18T04:14:16.987Z,1996.00
2023-05-18T04:15:17.001Z,2036.00
2023-05-18T04:16:17.109Z,2084.00
2023-05-18T04:17:16.961Z,2136.00
2023-05-18T04:18:16.969Z,2196.00
2023-05-18T04:19:17.011Z,2260.00
2023-05-18T04:20:17.022Z,2352.00
2023-05-18T04:21:16.954Z,2452.00
2023-05-18T04:22:16.909Z,2560.00
2023-05-18T04:23:16.939Z,2680.00
2023-05-18T04:24:16.997Z,2812.00
2023-05-18T04:25:16.910Z,2896.00
2023-05-18T04:26:16.938Z,2952.00
2023-05-18T04:27:16.877Z,2980.00
2023-05-18T04:28:16.892Z,2980.00
2023-05-18T04:29:16.854Z,2984.00
2023-05-18T04:30:16.838Z,2996.00
2023-05-18T04:31:16.833Z,3012.00
2023-05-18T04:32:16.948Z,3020.00
2023-05-18T04:33:16.826Z,3028.00
2023-05-18T04:34:16.804Z,3072.00
2023-05-18T04:35:16.802Z,3132.00
2023-05-18T04:36:17.715Z,3200.00
2023-05-18T04:37:16.765Z,3276.00
2023-05-18T04:38:16.821Z,3340.00
2023-05-18T04:39:16.797Z,3412.00
2023-05-18T04:40:16.764Z,3492.00
2023-05-18T04:41:16.748Z,3564.00
2023-05-18T04:42:16.744Z,3624.00
2023-05-18T04:43:16.829Z,3668.00
2023-05-18T04:44:16.748Z,3736.00
2023-05-18T04:45:16.719Z,3812.00
2023-05-18T04:46:16.755Z,3880.00
2023-05-18T04:47:16.710Z,3944.00
2023-05-18T04:48:16.700Z,4024.00
2023-05-18T04:49:17.684Z,4116.00
2023-05-18T04:50:16.670Z,4188.00
2023-05-18T04:51:16.699Z,4240.00
2023-05-18T04:52:16.672Z,4296.00
2023-05-18T04:53:16.697Z,4376.00
2023-05-18T04:54:16.638Z,4512.00
2023-05-18T04:55:16.647Z,4712.00
2023-05-18T04:56:16.624Z,4840.00
2023-05-18T04:57:16.618Z,4932.00
2023-05-18T04:58:16.641Z,5000.00
2023-05-18T04:59:16.597Z,5048.00
2023-05-18T05:00:16.597Z,5096.00
2023-05-18T05:01:16.617Z,5152.00
2023-05-18T05:02:16.599Z,5204.00
2023-05-18T05:03:16.688Z,5240.00
2023-05-18T05:04:16.562Z,5276.00
2023-05-18T05:05:16.536Z,5308.00
2023-05-18T05:06:16.529Z,5376.00
2023-05-18T05:07:16.536Z,5420.00
2023-05-18T05:08:16.532Z,5464.00
2023-05-18T05:09:16.500Z,5504.00
2023-05-18T05:10:16.489Z,5544.00
2023-05-18T05:11:16.486Z,5588.00
2023-05-18T05:12:16.521Z,5628.00
2023-05-18T05:13:16.478Z,5668.00
2023-05-18T05:14:16.448Z,5704.00
2023-05-18T05:15:16.435Z,5744.00
2023-05-18T05:16:16.471Z,5772.00
2023-05-18T05:17:16.436Z,5808.00
2023-05-18T05:18:16.415Z,5840.00
2023-05-18T05:19:16.451Z,5876.00
2023-05-18T05:20:16.452Z,5912.00
2023-05-18T05:21:16.452Z,5940.00
2023-05-18T05:22:16.370Z,5972.00
2023-05-18T05:23:16.383Z,6000.00
2023-05-18T05:24:16.354Z,6032.00
2023-05-18T05:25:16.352Z,6068.00
2023-05-18T05:26:16.356Z,6096.00
2023-05-18T05:27:16.316Z,6132.00
2023-05-18T05:28:16.309Z,6168.00
2023-05-18T05:29:16.297Z,6200.00
2023-05-18T05:30:16.298Z,6232.00
2023-05-18T05:31:16.399Z,6264.00
2023-05-18T05:32:16.261Z,6300.00
2023-05-18T05:33:16.279Z,6340.00
2023-05-18T05:34:16.263Z,6376.00
2023-05-18T05:35:16.271Z,6416.00
2023-05-18T05:36:16.216Z,6440.00
2023-05-18T05:37:16.208Z,6348.00
2023-05-18T05:38:16.202Z,6248.00
2023-05-18T05:39:16.199Z,6268.00
2023-05-18T05:40:16.219Z,6276.00
2023-05-18T05:41:16.195Z,6308.00
2023-05-18T05:42:16.151Z,6336.00
2023-05-18T05:43:16.152Z,6464.00
2023-05-18T05:44:16.139Z,6596.00
2023-05-18T05:45:16.143Z,6700.00
2023-05-18T05:46:16.140Z,6740.00
2023-05-18T05:47:16.137Z,6760.00
2023-05-18T05:48:16.141Z,6792.00
2023-05-18T05:49:16.092Z,6820.00
2023-05-18T05:50:16.117Z,6848.00
2023-05-18T05:51:16.060Z,6876.00
2023-05-18T05:52:16.050Z,6904.00
2023-05-18T05:53:16.034Z,6928.00
2023-05-18T05:54:16.045Z,6956.00
2023-05-18T05:55:16.028Z,6980.00
2023-05-18T05:56:16.004Z,7012.00
2023-05-18T05:57:16.012Z,7032.00
2023-05-18T05:58:15.988Z,7056.00
2023-05-18T05:59:15.978Z,7084.00
2023-05-18T06:00:15.991Z,7108.00
2023-05-18T06:01:15.950Z,7128.00
2023-05-18T06:02:16.009Z,7160.00
2023-05-18T06:03:15.993Z,7184.00
2023-05-18T06:04:16.005Z,7212.00
2023-05-18T06:05:15.904Z,7232.00
2023-05-18T06:06:41.792Z,7252.00
2023-05-18T06:07:15.876Z,7276.00
2023-05-18T06:08:15.880Z,7296.00
2023-05-18T06:09:15.857Z,7320.00
2023-05-18T06:10:15.847Z,7344.00
2023-05-18T06:11:15.830Z,7368.00
2023-05-18T06:12:15.813Z,7392.00
2023-05-18T06:13:15.824Z,7412.00
2023-05-18T06:14:15.799Z,7428.00
2023-05-18T06:15:15.788Z,7456.00
2023-05-18T06:16:15.830Z,7476.00
2023-05-18T06:17:15.783Z,7496.00
2023-05-18T06:18:15.806Z,7516.00
2023-05-18T06:19:15.782Z,7536.00
2023-05-18T06:20:15.758Z,7552.00
2023-05-18T06:21:15.729Z,7572.00
2023-05-18T06:22:16.022Z,7596.00
2023-05-18T06:23:15.699Z,7608.00
2023-05-18T06:24:15.700Z,7632.00
2023-05-18T06:25:15.778Z,7644.00
2023-05-18T06:26:15.700Z,7656.00
2023-05-18T06:27:15.677Z,7680.00
2023-05-18T06:28:15.686Z,7692.00
2023-05-18T06:29:15.639Z,7712.00
2023-05-18T06:30:15.673Z,7728.00
2023-05-18T06:31:15.642Z,7748.00
2023-05-18T06:32:15.645Z,7760.00
2023-05-18T06:33:15.621Z,7776.00
2023-05-18T06:34:15.587Z,7784.00
2023-05-18T06:35:15.672Z,7800.00
2023-05-18T06:36:15.585Z,7816.00
2023-05-18T06:37:15.554Z,7836.00
2023-05-18T06:38:15.540Z,7840.00
2023-05-18T06:39:15.544Z,7864.00
2023-05-18T06:40:15.558Z,7880.00
2023-05-18T06:41:15.495Z,7892.00
2023-05-18T06:42:15.484Z,7908.00
2023-05-18T06:43:15.472Z,7924.00
2023-05-18T06:44:15.510Z,7936.00
2023-05-18T06:45:15.453Z,7952.00
2023-05-18T06:46:15.512Z,7956.00
2023-05-18T06:47:15.449Z,7972.00
2023-05-18T06:48:15.431Z,7984.00
2023-05-18T06:49:15.412Z,7996.00
2023-05-18T06:50:15.445Z,8004.00
2023-05-18T06:51:15.462Z,8016.00
2023-05-18T06:52:15.404Z,8040.00
2023-05-18T06:53:15.377Z,8044.00
2023-05-18T06:54:15.372Z,8064.00
2023-05-18T06:55:15.480Z,8068.00
2023-05-18T06:56:15.364Z,8080.00
2023-05-18T06:57:15.342Z,8092.00
2023-05-18T06:58:15.336Z,8104.00
2023-05-18T06:59:15.332Z,8120.00
2023-05-18T07:00:15.404Z,8132.00
2023-05-18T07:01:15.358Z,8144.00
2023-05-18T07:02:15.296Z,8152.00
2023-05-18T07:03:15.346Z,8164.00
2023-05-18T07:04:15.347Z,8176.00
2023-05-18T07:05:16.291Z,8184.00
2023-05-18T07:06:15.243Z,8200.00
2023-05-18T07:07:15.285Z,8204.00
2023-05-18T07:08:15.335Z,8216.00
2023-05-18T07:09:15.242Z,8232.00
2023-05-18T07:10:15.208Z,8236.00
2023-05-18T07:11:15.193Z,8244.00
2023-05-18T07:12:15.187Z,8232.00
2023-05-18T07:13:15.179Z,8248.00
2023-05-18T07:14:15.197Z,8256.00
2023-05-18T07:15:15.179Z,8264.00
2023-05-18T07:16:15.159Z,8264.00
2023-05-18T07:17:15.143Z,8268.00
2023-05-18T07:18:15.203Z,8280.00
2023-05-18T07:19:15.227Z,8296.00
2023-05-18T07:20:15.124Z,8312.00
2023-05-18T07:21:15.097Z,8320.00
2023-05-18T07:22:15.141Z,8324.00
2023-05-18T07:23:15.097Z,8336.00
2023-05-18T07:24:16.103Z,8340.00
2023-05-18T07:25:15.061Z,8328.00
2023-05-18T07:26:15.103Z,8332.00
2023-05-18T07:27:15.052Z,8332.00
2023-05-18T07:28:15.086Z,8336.00
2023-05-18T07:29:15.042Z,8344.00
2023-05-18T07:30:15.017Z,8356.00
2023-05-18T07:31:15.058Z,8364.00
2023-05-18T07:32:14.998Z,8372.00
2023-05-18T07:33:15.019Z,8376.00
2023-05-18T07:34:15.008Z,8388.00
2023-05-18T07:35:14.966Z,8396.00
2023-05-18T07:36:15.002Z,8408.00
2023-05-18T07:37:15.050Z,8416.00
2023-05-18T07:38:14.944Z,8424.00
2023-05-18T07:39:14.933Z,8440.00
2023-05-18T07:40:14.922Z,8440.00
2023-05-18T07:41:14.920Z,8452.00
2023-05-18T07:42:14.918Z,8452.00
2023-05-18T07:43:14.891Z,8464.00
2023-05-18T07:44:14.900Z,8480.00
2023-05-18T07:45:14.889Z,8496.00
2023-05-18T07:46:14.893Z,8504.00
2023-05-18T07:47:14.873Z,8512.00
2023-05-18T07:48:14.871Z,8524.00
2023-05-18T07:49:14.827Z,8532.00
2023-05-18T07:50:14.849Z,8540.00
2023-05-18T07:51:14.825Z,8548.00
2023-05-18T07:52:14.856Z,8560.00
2023-05-18T07:53:14.789Z,8564.00
2023-05-18T07:54:14.796Z,8564.00
2023-05-18T07:55:14.803Z,8572.00
2023-05-18T07:56:14.781Z,8588.00
2023-05-18T07:57:14.743Z,8596.00
2023-05-18T07:58:14.749Z,8604.00
2023-05-18T07:59:14.734Z,8612.00
2023-05-18T08:00:14.726Z,8616.00
2023-05-18T08:01:14.742Z,8628.00
2023-05-18T08:02:14.891Z,8632.00
2023-05-18T08:03:14.768Z,8632.00
2023-05-18T08:04:14.762Z,8632.00
2023-05-18T08:05:14.978Z,8640.00
2023-05-18T08:06:15.386Z,8656.00
2023-05-18T08:07:14.642Z,8668.00
2023-05-18T08:08:14.639Z,8680.00
2023-05-18T08:09:14.622Z,8684.00
2023-05-18T08:10:14.640Z,8692.00
2023-05-18T08:11:14.601Z,8704.00
2023-05-18T08:12:14.593Z,8704.00
2023-05-18T08:13:14.591Z,8708.00
2023-05-18T08:14:14.575Z,8704.00
2023-05-18T08:15:14.594Z,8724.00
2023-05-18T08:16:14.574Z,8732.00
2023-05-18T08:17:14.604Z,8732.00
2023-05-18T08:18:14.568Z,8748.00
2023-05-18T08:19:14.603Z,8760.00
2023-05-18T08:20:14.547Z,8772.00
2023-05-18T08:21:14.523Z,8768.00
2023-05-18T08:22:14.516Z,8768.00
2023-05-18T08:23:14.494Z,8760.00
2023-05-18T08:24:14.508Z,8768.00
2023-05-18T08:25:14.479Z,8796.00
2023-05-18T08:26:14.453Z,8800.00
2023-05-18T08:27:14.445Z,8808.00
2023-05-18T08:28:14.439Z,8824.00
2023-05-18T08:29:14.440Z,8840.00
2023-05-18T08:30:14.415Z,8844.00
2023-05-18T08:31:14.403Z,8860.00
2023-05-18T08:32:14.519Z,8884.00
2023-05-18T08:33:14.488Z,8900.00
2023-05-18T08:34:14.418Z,8908.00
2023-05-18T08:35:14.379Z,8920.00
2023-05-18T08:36:14.352Z,8932.00
2023-05-18T08:37:14.350Z,8940.00
2023-05-18T08:38:14.359Z,8944.00
2023-05-18T08:39:14.342Z,8964.00
2023-05-18T08:40:14.333Z,8976.00
2023-05-18T08:41:14.314Z,9000.00
2023-05-18T08:42:14.303Z,9024.00
2023-05-18T08:43:14.312Z,9036.00
2023-05-18T08:44:14.273Z,9048.00
2023-05-18T08:45:14.272Z,9068.00
2023-05-18T08:46:14.261Z,9096.00
2023-05-18T08:47:14.313Z,9152.00
2023-05-18T08:48:14.329Z,9204.00
2023-05-18T08:49:14.289Z,9260.00
2023-05-18T08:50:14.218Z,9312.00
2023-05-18T08:51:14.219Z,9344.00
2023-05-18T08:52:14.214Z,9316.00
2023-05-18T08:53:14.188Z,9320.00
2023-05-18T08:54:14.189Z,9356.00
2023-05-18T08:55:14.175Z,9416.00
2023-05-18T08:56:14.156Z,9264.00
2023-05-18T08:57:14.160Z,7092.00
2023-05-18T08:58:14.151Z,7296.00
2023-05-18T08:59:14.131Z,9604.00
2023-05-18T09:00:14.119Z,9780.00
2023-05-18T09:01:14.180Z,8960.00
2023-05-18T09:02:14.132Z,9972.00
2023-05-18T09:03:14.164Z,10048.00
2023-05-18T09:04:14.091Z,8040.00
2023-05-18T09:05:14.133Z,8644.00
2023-05-18T09:06:14.079Z,8944.00
2023-05-18T09:07:14.076Z,8924.00
2023-05-18T09:08:14.025Z,8696.00
2023-05-18T09:09:14.033Z,8168.00
2023-05-18T09:10:14.012Z,8132.00
2023-05-18T09:11:14.007Z,8296.00
2023-05-18T09:12:14.066Z,8628.00
2023-05-18T09:13:13.992Z,8864.00
2023-05-18T09:14:13.984Z,9032.00
2023-05-18T09:15:13.977Z,9196.00
2023-05-18T09:16:14.043Z,9436.00
2023-05-18T09:17:13.975Z,9744.00
2023-05-18T09:18:13.947Z,10388.00
2023-05-18T09:19:15.011Z,10412.00
2023-05-18T09:20:13.915Z,10276.00
2023-05-18T09:21:13.958Z,10336.00
2023-05-18T09:22:13.897Z,10320.00
2023-05-18T09:23:13.892Z,10096.00
2023-05-18T09:24:13.897Z,9928.00
2023-05-18T09:25:13.879Z,9852.00
2023-05-18T09:26:14.868Z,9868.00
2023-05-18T09:27:13.854Z,9916.00
2023-05-18T09:28:13.831Z,9796.00
2023-05-18T09:29:13.836Z,9872.00
2023-05-18T09:30:13.835Z,10352.00
2023-05-18T09:31:13.878Z,10800.00
2023-05-18T09:32:13.800Z,11184.00
2023-05-18T09:33:13.984Z,11648.00
2023-05-18T09:34:13.806Z,12032.00
2023-05-18T09:35:13.778Z,12360.00
2023-05-18T09:36:13.772Z,12692.00
2023-05-18T09:37:13.748Z,13108.00
2023-05-18T09:38:13.746Z,13064.00
2023-05-18T09:39:13.737Z,13196.00
2023-05-18T09:40:13.718Z,13304.00
2023-05-18T09:41:13.713Z,13236.00
2023-05-18T09:42:13.694Z,12840.00
2023-05-18T09:43:13.699Z,12480.00
2023-05-18T09:44:13.693Z,12416.00
2023-05-18T09:45:13.682Z,12500.00
2023-05-18T09:46:13.744Z,12688.00
2023-05-18T09:47:13.645Z,13032.00
2023-05-18T09:48:13.721Z,13320.00
2023-05-18T09:49:13.635Z,13492.00
2023-05-18T09:50:13.622Z,13556.00
2023-05-18T09:51:13.611Z,13432.00
2023-05-18T09:52:13.610Z,13008.00
2023-05-18T09:53:13.652Z,12556.00
2023-05-18T09:54:13.580Z,12064.00
2023-05-18T09:55:13.587Z,11848.00
2023-05-18T09:56:13.569Z,12008.00
2023-05-18T09:57:13.570Z,12304.00
2023-05-18T09:58:13.601Z,12624.00
2023-05-18T09:59:13.573Z,12772.00
2023-05-18T10:00:13.557Z,12744.00
2023-05-18T10:01:13.532Z,13052.00
2023-05-18T10:02:13.523Z,14624.00
2023-05-18T10:03:13.505Z,12708.00
2023-05-18T10:04:13.611Z,12336.00
2023-05-18T10:05:13.497Z,11900.00
2023-05-18T10:06:13.467Z,11524.00
2023-05-18T10:07:13.484Z,11288.00
2023-05-18T10:08:13.474Z,11240.00
2023-05-18T10:09:13.451Z,11476.00
2023-05-18T10:10:13.446Z,13376.00
2023-05-18T10:11:13.431Z,14816.00
2023-05-18T10:12:13.462Z,15072.00
2023-05-18T10:13:13.435Z,13436.00
2023-05-18T10:14:13.410Z,13096.00
2023-05-18T10:15:13.406Z,13368.00
2023-05-18T10:16:13.502Z,13648.00
2023-05-18T10:17:15.537Z,14076.00
2023-05-18T10:18:14.486Z,15744.00
2023-05-18T10:19:13.445Z,14656.00
2023-05-18T10:20:13.344Z,13692.00
2023-05-18T10:21:13.393Z,14032.00
2023-05-18T10:22:13.405Z,13684.00
2023-05-18T10:23:13.315Z,13328.00
2023-05-18T10:24:13.296Z,15104.00
2023-05-18T10:25:13.337Z,14016.00
2023-05-18T10:26:13.309Z,12032.00
2023-05-18T10:27:13.273Z,13328.00
2023-05-18T10:28:13.263Z,12032.00
2023-05-18T10:29:13.319Z,12500.00
2023-05-18T10:30:13.290Z,13952.00
2023-05-18T10:31:13.298Z,12236.00
2023-05-18T10:32:13.224Z,12024.00
2023-05-18T10:33:24.453Z,13504.00
2023-05-18T10:34:15.191Z,14112.00
2023-05-18T10:35:13.226Z,14016.00
2023-05-18T10:36:13.207Z,11708.00
2023-05-18T10:37:13.187Z,11672.00
2023-05-18T10:38:13.153Z,13920.00
2023-05-18T10:39:13.170Z,14368.00
2023-05-18T10:40:13.178Z,13436.00
2023-05-18T10:41:13.174Z,13480.00
2023-05-18T10:42:13.133Z,15616.00
2023-05-18T10:43:13.115Z,15456.00
2023-05-18T10:44:13.108Z,15744.00
2023-05-18T10:45:13.087Z,16000.00
2023-05-18T10:46:13.123Z,15904.00
2023-05-18T10:47:13.283Z,15648.00
2023-05-18T10:48:13.123Z,15360.00
2023-05-18T10:49:13.067Z,14944.00
2023-05-18T10:50:13.111Z,14656.00
2023-05-18T10:51:13.024Z,14464.00
2023-05-18T10:52:13.019Z,14208.00
2023-05-18T10:53:13.008Z,13888.00
2023-05-18T10:54:13.014Z,13440.00
2023-05-18T10:55:12.993Z,13248.00
2023-05-18T10:56:13.007Z,13216.00
2023-05-18T10:57:12.998Z,12868.00
2023-05-18T10:58:12.963Z,12616.00
2023-05-18T10:59:13.008Z,12420.00
2023-05-18T11:00:12.925Z,12132.00
2023-05-18T11:01:12.998Z,12068.00
2023-05-18T11:02:13.049Z,11972.00
2023-05-18T11:03:12.994Z,11880.00
2023-05-18T11:04:12.967Z,11704.00
2023-05-18T11:05:12.989Z,11712.00
2023-05-18T11:06:12.895Z,11656.00
2023-05-18T11:07:12.867Z,11900.00
2023-05-18T11:08:12.872Z,12020.00
2023-05-18T11:09:12.843Z,12112.00
2023-05-18T11:10:12.836Z,12304.00
2023-05-18T11:11:12.827Z,12572.00
2023-05-18T11:12:12.814Z,12776.00
2023-05-18T11:13:12.833Z,13056.00
2023-05-18T11:14:12.800Z,13120.00
2023-05-18T11:15:12.788Z,13184.00
2023-05-18T11:16:12.826Z,12580.00
2023-05-18T11:17:12.792Z,10520.00
2023-05-18T11:18:12.828Z,10052.00
2023-05-18T11:19:12.832Z,10268.00
2023-05-18T11:20:12.749Z,12348.00
2023-05-18T11:21:12.747Z,12392.00
2023-05-18T11:22:12.745Z,12308.00
2023-05-18T11:23:12.722Z,12316.00
2023-05-18T11:24:12.709Z,12508.00
2023-05-18T11:25:12.682Z,12656.00
2023-05-18T11:26:12.680Z,12656.00
2023-05-18T11:27:12.687Z,12532.00
2023-05-18T11:28:12.659Z,12476.00
2023-05-18T11:29:12.656Z,12468.00
2023-05-18T11:30:15.820Z,12392.00
2023-05-18T11:31:13.684Z,12328.00
2023-05-18T11:33:13.925Z,12524.00
2023-05-18T11:34:12.602Z,12740.00
2023-05-18T11:35:12.591Z,12964.00
2023-05-18T11:36:12.613Z,13116.00
2023-05-18T11:37:12.573Z,13148.00
2023-05-18T11:38:12.577Z,13168.00
2023-05-18T11:39:12.559Z,13472.00
2023-05-18T11:40:12.556Z,13344.00
2023-05-18T11:41:12.547Z,13312.00
2023-05-18T11:42:12.527Z,13664.00
2023-05-18T11:43:12.527Z,13176.00
2023-05-18T11:44:12.567Z,11100.00
2023-05-18T11:45:12.516Z,10792.00
2023-05-18T11:46:12.489Z,10668.00
2023-05-18T11:47:12.473Z,10488.00
2023-05-18T11:48:12.499Z,10504.00
2023-05-18T11:49:12.504Z,10648.00
2023-05-18T11:50:12.475Z,12444.00
2023-05-18T11:51:12.436Z,12720.00
2023-05-18T11:52:12.429Z,12744.00
2023-05-18T11:53:12.412Z,12724.00
2023-05-18T11:54:12.387Z,12764.00
2023-05-18T11:55:12.407Z,12692.00
2023-05-18T11:56:12.378Z,12572.00
2023-05-18T11:57:12.370Z,12512.00
2023-05-18T11:58:12.368Z,12448.00
2023-05-18T11:59:12.368Z,12364.00
2023-05-18T12:00:12.663Z,12368.00
2023-05-18T12:01:12.335Z,12472.00
2023-05-18T12:02:12.354Z,12676.00
2023-05-18T12:03:12.368Z,13032.00
2023-05-18T12:04:12.399Z,13472.00
2023-05-18T12:05:12.293Z,13568.00
2023-05-18T12:06:12.294Z,12488.00
2023-05-18T12:07:12.278Z,11524.00
2023-05-18T12:08:12.292Z,10992.00
2023-05-18T12:09:12.264Z,10932.00
2023-05-18T12:10:12.354Z,10712.00
2023-05-18T12:11:12.232Z,10716.00
2023-05-18T12:12:12.279Z,10812.00
2023-05-18T12:13:12.247Z,10960.00
2023-05-18T12:14:12.219Z,13664.00
2023-05-18T12:15:12.192Z,11756.00
2023-05-18T12:16:12.207Z,11980.00
2023-05-18T12:17:12.266Z,11392.00
2023-05-18T12:18:12.274Z,12240.00
2023-05-18T12:19:12.185Z,13548.00